Time;durP1;ratioP1;P1;durP2;ratioP2;P2;SDS_P1;SDS_P2;PMS_P1;PMS_P2;Temp;Humidity;BMP_temperature;BMP_pressure;BME280_temperature;BME280_humidity;BME280_pressure;Samples;Min_cycle;Max_cycle;Signal;HPM_P1;HPM_P2
2023/05/09 00:01:54;;;;;;;9.43;7.60;;;;;;;19.17;65.64;101737.44;6123167;23;20006;-47
2023/05/09 00:04:19;;;;;;;8.57;7.18;;;;;;;19.16;65.58;101733.88;6124416;23;20013;-50
2023/05/09 00:06:45;;;;;;;11.90;8.60;;;;;;;19.16;65.75;101730.34;6123788;23;20016;-47
2023/05/09 00:09:11;;;;;;;9.55;7.65;;;;;;;19.14;65.54;101725.91;6123949;23;20014;-46
2023/05/09 00:11:37;;;;;;;9.05;7.22;;;;;;;19.16;65.41;101719.53;6123752;23;20006;-47
2023/05/09 00:14:02;;;;;;;9.25;7.47;;;;;;;19.15;65.37;101724.06;6123361;23;20010;-47
2023/05/09 00:16:28;;;;;;;10.00;7.40;;;;;;;19.16;65.59;101723.09;6123677;23;20417;-49
2023/05/09 00:18:54;;;;;;;9.95;7.47;;;;;;;19.15;65.45;101715.97;6123753;23;20009;-50
2023/05/09 00:21:20;;;;;;;9.43;7.53;;;;;;;19.14;65.74;101717.81;6124437;23;20017;-45
2023/05/09 00:23:46;;;;;;;9.70;7.15;;;;;;;19.15;65.33;101721.38;6123597;23;20413;-49
2023/05/09 00:26:12;;;;;;;7.38;6.43;;;;;;;19.14;65.56;101719.66;6123434;23;20090;-47
2023/05/09 00:28:37;;;;;;;7.75;6.63;;;;;;;19.13;65.48;101713.44;6123720;23;20029;-46
2023/05/09 00:31:03;;;;;;;9.30;7.00;;;;;;;19.15;65.28;101715.97;6123220;23;20014;-47
2023/05/09 00:33:28;;;;;;;8.80;7.20;;;;;;;19.12;65.23;101700.91;6123432;23;20421;-47
2023/05/09 00:35:54;;;;;;;7.80;6.43;;;;;;;19.15;65.49;101705.16;6123310;23;20014;-47
2023/05/09 00:38:19;;;;;;;10.43;7.43;;;;;;;19.14;65.37;101701.63;6124374;23;20010;-47
2023/05/09 00:40:44;;;;;;;8.35;6.60;;;;;;;19.14;65.31;101700.78;6123523;23;20056;-47
2023/05/09 00:43:10;;;;;;;9.45;7.22;;;;;;;19.13;65.05;101696.34;6123354;23;20012;-48
2023/05/09 00:45:36;;;;;;;8.93;6.95;;;;;;;19.13;65.11;101691.81;6123323;23;20343;-50
2023/05/09 00:48:01;;;;;;;8.82;7.10;;;;;;;19.14;65.54;101692.69;6097384;23;20014;-47
2023/05/09 00:50:27;;;;;;;6.85;6.15;;;;;;;19.13;65.48;101699.06;6123118;23;20006;-49
2023/05/09 00:52:52;;;;;;;7.43;6.28;;;;;;;19.11;65.36;101699.22;6123385;23;20392;-46
2023/05/09 00:55:18;;;;;;;8.48;6.53;;;;;;;19.12;65.62;101695.50;6123639;23;20010;-47
2023/05/09 00:57:44;;;;;;;7.45;6.53;;;;;;;19.13;65.15;101690.94;6123376;23;20017;-46
2023/05/09 01:00:11;;;;;;;7.63;6.43;;;;;;;19.12;65.39;101686.56;6123376;23;20443;-47
2023/05/09 01:02:43;;;;;;;8.60;7.15;;;;;;;19.11;65.24;101683.00;6096984;23;20532;-45
2023/05/09 01:05:10;;;;;;;7.55;6.13;;;;;;;19.11;65.16;101674.91;6122989;23;19998;-47
2023/05/09 01:07:49;;;;;;;8.07;6.82;;;;;;;19.11;65.44;101672.22;6123226;23;20016;-47
2023/05/09 01:10:20;;;;;;;8.30;6.85;;;;;;;19.11;65.27;101672.22;6123400;23;20006;-46
2023/05/09 01:12:58;;;;;;;7.57;6.75;;;;;;;19.12;65.22;101670.38;6123047;23;20005;-49
2023/05/09 01:15:35;;;;;;;7.05;6.35;;;;;;;19.13;65.45;101661.25;6123682;23;20033;-47
2023/05/09 01:18:09;;;;;;;9.80;6.20;;;;;;;19.13;65.27;101659.44;6123225;23;20026;-47
2023/05/09 01:20:44;;;;;;;8.65;6.90;;;;;;;19.12;65.26;101646.91;6123097;23;20002;-51
2023/05/09 01:23:45;;;;;;;6.95;6.10;;;;;;;19.16;65.41;101652.91;6123420;23;20065;-46
2023/05/09 01:26:39;;;;;;;7.78;6.53;;;;;;;19.14;65.10;101647.63;6103189;23;20009;-48
2023/05/09 01:29:44;;;;;;;8.05;6.57;;;;;;;19.15;65.20;101634.97;6073173;23;20497;-48
2023/05/09 01:32:22;;;;;;;6.43;5.78;;;;;;;19.11;65.18;101631.72;6005223;23;20083;-50
2023/05/09 01:34:50;;;;;;;7.45;6.07;;;;;;;19.09;65.14;101627.44;6005308;23;20011;-48
2023/05/09 01:37:21;;;;;;;7.47;6.35;;;;;;;19.09;65.21;101622.88;6072698;23;20038;-50
2023/05/09 01:39:50;;;;;;;7.38;6.10;;;;;;;19.08;65.02;101628.44;6123104;23;20012;-49
2023/05/09 01:42:19;;;;;;;7.40;6.43;;;;;;;19.08;65.41;101629.28;6122876;23;20053;-47
2023/05/09 01:44:46;;;;;;;7.50;6.13;;;;;;;19.09;64.96;101620.16;6122812;23;20325;-45
2023/05/09 01:47:15;;;;;;;8.48;6.53;;;;;;;19.07;65.06;101616.75;6122807;23;20006;-48
2023/05/09 01:49:41;;;;;;;8.27;6.40;;;;;;;19.08;65.20;101613.09;6123117;23;20025;-49
2023/05/09 01:52:10;;;;;;;8.25;6.53;;;;;;;19.08;65.30;101602.28;6122837;23;20038;-50
2023/05/09 01:54:38;;;;;;;7.90;6.20;;;;;;;19.07;65.20;101599.72;6122605;23;20018;-48
2023/05/09 01:57:05;;;;;;;8.18;6.65;;;;;;;19.06;64.91;101601.56;6123109;23;20544;-49
2023/05/09 01:59:33;;;;;;;7.63;6.05;;;;;;;19.07;65.26;101600.56;6122771;23;20016;-50
2023/05/09 02:01:59;;;;;;;6.05;5.45;;;;;;;19.07;65.07;101597.00;6123309;23;20012;-47
2023/05/09 02:04:27;;;;;;;5.88;5.28;;;;;;;19.07;65.19;101594.31;6123819;23;20002;-46
2023/05/09 02:06:53;;;;;;;6.45;5.82;;;;;;;19.07;64.89;101597.00;6123362;23;20005;-46
2023/05/09 02:09:19;;;;;;;6.75;5.55;;;;;;;19.06;65.22;101593.47;6122888;23;20053;-49
2023/05/09 02:11:45;;;;;;;6.65;5.60;;;;;;;19.05;65.22;101594.44;6123020;23;20010;-49
2023/05/09 02:14:11;;;;;;;7.75;6.20;;;;;;;19.06;65.27;101593.47;6122892;23;20006;-47
2023/05/09 02:16:38;;;;;;;6.55;5.82;;;;;;;19.06;65.30;101593.47;6123127;23;20018;-48
2023/05/09 02:19:03;;;;;;;7.85;6.03;;;;;;;19.06;65.00;101590.78;6123391;23;20010;-47
2023/05/09 02:21:29;;;;;;;6.18;5.30;;;;;;;19.05;64.90;101591.75;6123315;23;20016;-51
2023/05/09 02:23:55;;;;;;;6.82;5.90;;;;;;;19.05;65.03;101594.44;6123981;23;20089;-47
2023/05/09 02:26:21;;;;;;;7.28;5.88;;;;;;;19.05;65.17;101588.19;6124898;23;20001;-47
2023/05/09 02:28:48;;;;;;;6.00;5.40;;;;;;;19.05;65.34;101602.53;6124697;23;20039;-49
2023/05/09 02:31:17;;;;;;;6.18;5.50;;;;;;;19.04;65.19;101595.44;6124638;23;20005;-46
2023/05/09 02:33:46;;;;;;;6.38;5.28;;;;;;;19.04;64.88;101598.16;6124486;23;20013;-49
2023/05/09 02:36:13;;;;;;;6.50;4.97;;;;;;;19.04;65.19;101598.16;6124239;23;20010;-49
2023/05/09 02:38:40;;;;;;;5.93;5.20;;;;;;;19.03;65.25;101599.13;6124375;23;20333;-47
2023/05/09 02:41:06;;;;;;;6.93;5.28;;;;;;;19.04;64.85;101599.97;6124727;23;20061;-47
2023/05/09 02:43:31;;;;;;;5.90;5.30;;;;;;;19.04;64.97;101600.84;6124379;23;20017;-48
2023/05/09 02:45:57;;;;;;;6.75;5.28;;;;;;;19.03;65.12;101599.13;6124865;23;20076;-48
2023/05/09 02:48:22;;;;;;;6.60;5.50;;;;;;;19.03;65.12;101590.19;6124332;23;20006;-50
2023/05/09 02:50:47;;;;;;;5.93;5.32;;;;;;;19.03;65.04;101582.94;6124577;23;20020;-49
2023/05/09 02:53:13;;;;;;;5.88;5.22;;;;;;;19.02;65.01;101578.53;6124203;23;20045;-47
2023/05/09 02:55:38;;;;;;;6.32;5.03;;;;;;;19.03;65.19;101576.69;6124390;23;20041;-46
2023/05/09 02:58:04;;;;;;;4.80;4.38;;;;;;;19.02;65.00;101574.97;6124496;23;20017;-48
2023/05/09 03:00:29;;;;;;;5.70;5.03;;;;;;;19.02;65.14;101573.16;6124580;23;20387;-47
2023/05/09 03:02:54;;;;;;;6.07;5.47;;;;;;;19.02;65.01;101573.16;6124850;23;20451;-47
2023/05/09 03:05:20;;;;;;;5.78;4.93;;;;;;;19.01;65.00;101560.63;6124339;23;20013;-47
2023/05/09 03:07:46;;;;;;;5.80;4.88;;;;;;;19.01;64.99;101555.22;6124274;23;20430;-47
2023/05/09 03:10:11;;;;;;;5.95;5.18;;;;;;;19.01;65.21;101557.94;6124055;23;20013;-47
2023/05/09 03:12:38;;;;;;;5.90;5.18;;;;;;;19.01;65.15;101548.97;6124188;23;20009;-47
2023/05/09 03:15:05;;;;;;;5.20;4.70;;;;;;;19.00;64.99;101550.84;6124071;23;20333;-49
2023/05/09 03:17:30;;;;;;;6.40;5.53;;;;;;;19.00;64.87;101556.22;6124101;23;20006;-48
2023/05/09 03:19:56;;;;;;;6.40;5.53;;;;;;;19.01;65.10;101540.88;6124759;23;20009;-48
2023/05/09 03:22:21;;;;;;;5.35;4.70;;;;;;;19.02;65.13;101545.28;6124062;23;20010;-47
2023/05/09 03:24:47;;;;;;;5.50;5.00;;;;;;;19.01;64.90;101543.59;6124178;23;20057;-47
2023/05/09 03:27:12;;;;;;;5.25;4.75;;;;;;;19.01;65.06;101543.59;6123959;23;20010;-48
2023/05/09 03:29:38;;;;;;;5.88;4.97;;;;;;;19.00;64.89;101542.75;6124432;23;20006;-48
2023/05/09 03:32:04;;;;;;;5.65;5.05;;;;;;;19.00;64.77;101549.97;6124999;23;20479;-48
2023/05/09 03:34:29;;;;;;;5.30;4.80;;;;;;;18.99;65.19;101546.41;6124696;23;20016;-47
2023/05/09 03:36:55;;;;;;;5.40;4.88;;;;;;;19.00;65.22;101542.75;6124585;23;20061;-47
2023/05/09 03:39:20;;;;;;;5.57;4.85;;;;;;;18.99;64.88;101543.72;6123945;23;20014;-48
2023/05/09 03:41:45;;;;;;;5.75;4.40;;;;;;;19.00;64.97;101539.16;6124674;23;20033;-46
2023/05/09 03:44:11;;;;;;;5.28;4.72;;;;;;;19.00;65.09;101534.66;6124416;23;20467;-48
2023/05/09 03:46:36;;;;;;;5.78;5.18;;;;;;;18.99;65.01;101535.63;6124882;23;20373;-50
2023/05/09 03:49:03;;;;;;;4.88;4.38;;;;;;;18.99;64.99;101532.91;6124520;23;20314;-47
2023/05/09 03:51:29;;;;;;;6.00;4.68;;;;;;;18.99;64.88;101526.69;6125279;23;20456;-46
2023/05/09 03:53:55;;;;;;;4.82;4.18;;;;;;;18.97;64.88;101524.09;6124397;23;20344;-48
2023/05/09 03:56:21;;;;;;;5.07;4.40;;;;;;;18.97;64.84;101523.25;6125386;23;20572;-48
2023/05/09 03:58:47;;;;;;;5.53;4.63;;;;;;;18.98;64.72;101523.09;6123623;23;20012;-47
2023/05/09 04:01:12;;;;;;;5.88;4.93;;;;;;;18.96;65.02;101519.69;6123583;23;20433;-48
2023/05/09 04:03:38;;;;;;;5.82;4.72;;;;;;;18.95;64.96;101508.06;6123717;23;20009;-48
2023/05/09 04:06:04;;;;;;;5.18;4.68;;;;;;;18.97;64.99;101515.16;6123535;23;20005;-47
2023/05/09 04:08:31;;;;;;;5.25;4.60;;;;;;;18.96;64.89;101511.59;6124289;23;20013;-46
2023/05/09 04:10:56;;;;;;;5.07;4.57;;;;;;;18.96;64.79;101511.59;6123880;23;20429;-47
2023/05/09 04:13:22;;;;;;;5.10;4.53;;;;;;;18.96;64.72;101503.50;6123742;23;20073;-49
2023/05/09 04:15:47;;;;;;;5.43;4.38;;;;;;;18.95;65.00;101497.25;6123277;23;20005;-49
2023/05/09 04:18:13;;;;;;;4.32;3.80;;;;;;;18.95;65.03;101488.31;6097983;23;20460;-48
2023/05/09 04:20:38;;;;;;;4.50;4.10;;;;;;;18.97;64.80;101488.19;6123728;23;20333;-47
2023/05/09 04:23:04;;;;;;;4.47;4.07;;;;;;;18.96;65.07;101490.00;6123673;23;20020;-48
2023/05/09 04:25:30;;;;;;;4.65;4.22;;;;;;;18.95;64.80;101485.63;6124252;23;20002;-50
2023/05/09 04:27:56;;;;;;;4.82;4.20;;;;;;;18.94;64.81;101490.16;6123446;23;20006;-47
2023/05/09 04:30:22;;;;;;;4.57;4.18;;;;;;;18.95;64.99;101488.31;6123247;23;20016;-47
2023/05/09 04:32:48;;;;;;;4.88;4.15;;;;;;;18.94;64.59;101492.00;6123704;23;20001;-46
2023/05/09 04:35:14;;;;;;;5.18;4.68;;;;;;;18.94;65.04;101498.25;6123472;23;20010;-48
2023/05/09 04:37:40;;;;;;;5.25;4.32;;;;;;;18.94;64.73;101492.00;6123224;23;20073;-48
2023/05/09 04:40:07;;;;;;;4.90;4.40;;;;;;;18.95;64.99;101488.31;6097972;23;20663;-48
2023/05/09 04:42:33;;;;;;;5.43;4.38;;;;;;;18.95;64.67;101485.63;6123646;23;20317;-48
2023/05/09 04:44:59;;;;;;;4.90;4.40;;;;;;;18.95;64.71;101477.53;6123905;23;20002;-47
2023/05/09 04:47:25;;;;;;;4.70;4.20;;;;;;;18.94;64.84;101476.66;6123059;23;20032;-48
2023/05/09 04:49:50;;;;;;;4.93;4.30;;;;;;;18.94;64.87;101479.38;6123227;23;20010;-51
2023/05/09 04:52:16;;;;;;;4.40;4.00;;;;;;;18.94;64.81;101468.56;6123586;23;20010;-48
2023/05/09 04:54:41;;;;;;;6.57;4.55;;;;;;;18.94;64.65;101468.56;6123127;23;20512;-48
2023/05/09 04:57:07;;;;;;;4.63;4.20;;;;;;;18.95;64.61;101466.72;6123362;23;20018;-48
2023/05/09 04:59:32;;;;;;;5.32;4.68;;;;;;;18.94;64.86;101471.28;6123604;23;20014;-49
2023/05/09 05:01:58;;;;;;;5.72;4.20;;;;;;;18.95;64.90;101464.03;6123313;23;20185;-47
2023/05/09 05:04:23;;;;;;;4.03;3.67;;;;;;;18.94;64.72;101465.00;6123521;23;20017;-49
2023/05/09 05:06:49;;;;;;;4.35;3.95;;;;;;;18.94;64.71;101465.88;6123573;23;20427;-51
2023/05/09 05:09:14;;;;;;;5.03;4.32;;;;;;;18.94;64.79;101452.38;6123577;23;20380;-50
2023/05/09 05:11:39;;;;;;;4.50;4.10;;;;;;;18.95;64.51;101445.13;6123028;23;20431;-47
2023/05/09 05:14:05;;;;;;;4.88;4.05;;;;;;;18.94;64.61;101444.28;6122955;23;20488;-51
2023/05/09 05:16:30;;;;;;;4.10;3.65;;;;;;;18.94;64.65;101430.78;6123432;23;20340;-48
2023/05/09 05:18:55;;;;;;;4.28;3.88;;;;;;;18.94;64.85;101427.22;6122570;23;20009;-49
2023/05/09 05:21:21;;;;;;;4.20;3.78;;;;;;;18.94;64.65;101427.22;6123040;23;20337;-48
2023/05/09 05:23:46;;;;;;;4.22;3.83;;;;;;;18.93;64.72;101423.69;6123049;23;20021;-46
2023/05/09 05:26:12;;;;;;;4.72;4.13;;;;;;;18.93;64.48;101420.97;6097233;23;20057;-48
2023/05/09 05:28:37;;;;;;;4.38;3.95;;;;;;;18.94;64.61;101416.44;6123143;23;20016;-49
2023/05/09 05:31:02;;;;;;;3.70;3.33;;;;;;;18.93;64.43;101417.44;6123161;23;20020;-47
2023/05/09 05:33:28;;;;;;;4.28;3.85;;;;;;;18.94;64.81;101421.81;6122745;23;20010;-46
2023/05/09 05:35:53;;;;;;;4.25;3.75;;;;;;;18.94;64.50;101421.81;6123078;23;20036;-47
2023/05/09 05:38:18;;;;;;;4.20;3.80;;;;;;;18.94;64.65;101416.44;6122935;23;20088;-47
2023/05/09 05:40:44;;;;;;;4.22;3.83;;;;;;;18.94;64.74;101406.50;6122241;23;20010;-46
2023/05/09 05:43:09;;;;;;;4.90;3.97;;;;;;;18.93;64.38;101407.50;6121500;23;20014;-48
2023/05/09 05:45:34;;;;;;;4.40;4.00;;;;;;;18.94;64.72;101405.63;6123317;23;20020;-47
2023/05/09 05:48:01;;;;;;;4.10;3.70;;;;;;;18.94;64.45;101408.34;6123781;23;20006;-47
2023/05/09 05:50:27;;;;;;;4.55;3.63;;;;;;;18.94;64.69;101406.50;6123314;23;20037;-47
2023/05/09 05:52:52;;;;;;;4.00;3.63;;;;;;;18.94;64.59;101402.94;6123666;23;20018;-48
2023/05/09 05:55:18;;;;;;;4.22;3.83;;;;;;;18.95;64.77;101393.84;6123853;23;20065;-48
2023/05/09 05:57:43;;;;;;;4.47;3.97;;;;;;;18.95;64.68;101401.97;6124156;23;20010;-49
2023/05/09 06:00:10;;;;;;;5.72;3.95;;;;;;;18.94;64.78;101397.53;6125495;23;20390;-47
2023/05/09 06:02:35;;;;;;;3.92;3.53;;;;;;;18.94;64.56;101398.41;6126191;23;20010;-49
2023/05/09 06:05:02;;;;;;;3.70;3.40;;;;;;;18.95;64.61;101391.16;6125193;23;20030;-47
2023/05/09 06:07:28;;;;;;;3.50;3.20;;;;;;;18.94;64.58;101390.31;6124606;23;20014;-47
2023/05/09 06:09:53;;;;;;;4.20;3.78;;;;;;;18.93;64.53;101388.59;6124888;23;20056;-48
2023/05/09 06:12:18;;;;;;;3.70;3.40;;;;;;;18.94;64.56;101384.03;6124542;23;20033;-49
2023/05/09 06:14:44;;;;;;;4.25;3.85;;;;;;;18.94;64.32;101382.22;6124904;23;20021;-50
2023/05/09 06:17:09;;;;;;;4.63;4.13;;;;;;;18.94;64.43;101376.81;6125085;23;20010;-46
2023/05/09 06:19:36;;;;;;;4.90;3.55;;;;;;;18.94;64.48;101367.84;6125639;23;20025;-48
2023/05/09 06:22:01;;;;;;;4.05;3.50;;;;;;;18.94;64.98;101374.13;6125024;23;20418;-47
2023/05/09 06:24:27;;;;;;;4.05;3.65;;;;;;;18.94;64.88;101367.84;6124348;23;20189;-46
2023/05/09 06:26:52;;;;;;;3.95;3.55;;;;;;;18.95;64.55;101380.38;6124673;23;20016;-49
2023/05/09 06:29:18;;;;;;;3.72;3.40;;;;;;;18.94;64.81;101370.56;6124413;23;20010;-46
2023/05/09 06:31:43;;;;;;;3.72;3.40;;;;;;;18.94;64.49;101368.72;6098860;23;20009;-49
2023/05/09 06:34:08;;;;;;;3.80;3.50;;;;;;;18.94;64.49;101373.25;6124525;23;20419;-48
2023/05/09 06:36:34;;;;;;;4.35;3.60;;;;;;;18.94;64.82;101367.84;6124990;23;20013;-48
2023/05/09 06:39:00;;;;;;;3.50;3.20;;;;;;;18.95;64.62;101372.28;6124471;23;20006;-47
2023/05/09 06:41:25;;;;;;;3.88;3.50;;;;;;;18.94;64.65;101368.72;6124495;23;20010;-48
2023/05/09 06:43:51;;;;;;;3.63;3.33;;;;;;;18.93;64.58;101361.63;6124546;23;20088;-49
2023/05/09 06:46:17;;;;;;;3.83;3.47;;;;;;;18.95;64.51;101358.78;6124290;23;20069;-47
2023/05/09 06:48:42;;;;;;;4.57;3.75;;;;;;;18.94;64.53;101359.75;6124692;23;20424;-50
2023/05/09 06:51:08;;;;;;;4.53;3.38;;;;;;;18.94;64.74;101357.06;6125068;23;20006;-50
2023/05/09 06:53:33;;;;;;;3.90;3.42;;;;;;;18.95;64.39;101348.00;6098371;23;20028;-47
2023/05/09 06:55:59;;;;;;;4.90;3.50;;;;;;;18.94;64.68;101347.16;6124275;23;20017;-47
2023/05/09 06:58:26;;;;;;;3.88;3.38;;;;;;;18.95;64.77;101342.59;6123795;23;20037;-51
2023/05/09 07:00:52;;;;;;;3.53;3.17;;;;;;;18.94;64.62;101343.56;6124516;23;20380;-50
2023/05/09 07:03:17;;;;;;;3.53;3.20;;;;;;;18.94;64.42;101340.88;6124028;23;20006;-46
2023/05/09 07:05:43;;;;;;;3.70;3.40;;;;;;;18.95;64.49;101337.19;6124174;23;20005;-46
2023/05/09 07:08:08;;;;;;;3.63;3.33;;;;;;;18.95;64.39;101337.19;6124911;23;20096;-47
2023/05/09 07:10:34;;;;;;;4.72;3.47;;;;;;;18.95;64.46;101334.50;6123823;23;20006;-50
2023/05/09 07:12:59;;;;;;;3.85;3.42;;;;;;;18.95;64.60;101329.09;6125090;23;20018;-46
2023/05/09 07:15:24;;;;;;;3.65;3.22;;;;;;;18.95;64.78;101331.78;6124447;23;20417;-50
2023/05/09 07:17:51;;;;;;;3.42;3.13;;;;;;;18.95;64.71;101332.63;6124455;23;20314;-50
2023/05/09 07:20:16;;;;;;;4.03;3.30;;;;;;;18.95;64.38;101331.78;6124305;23;20009;-50
2023/05/09 07:22:42;;;;;;;3.63;3.05;;;;;;;18.95;64.44;101323.69;6124139;23;20459;-47
2023/05/09 07:25:08;;;;;;;3.70;3.10;;;;;;;18.95;64.42;101324.53;6124975;23;20010;-49
2023/05/09 07:27:33;;;;;;;3.42;3.13;;;;;;;18.95;64.85;101316.44;6124313;23;20006;-51
2023/05/09 07:29:59;;;;;;;4.35;3.53;;;;;;;18.95;64.77;101321.84;6124377;23;20040;-46
2023/05/09 07:32:27;;;;;;;4.20;3.80;;;;;;;18.95;64.87;101315.59;6124017;23;20477;-48
2023/05/09 07:34:53;;;;;;;3.58;3.03;;;;;;;18.95;64.47;101315.59;6124129;23;20337;-47
2023/05/09 07:37:18;;;;;;;3.65;3.35;;;;;;;18.95;64.73;101315.59;6124524;23;20010;-47
2023/05/09 07:39:45;;;;;;;3.67;3.38;;;;;;;18.95;64.85;101319.16;6124436;23;20469;-50
2023/05/09 07:42:10;;;;;;;3.10;2.80;;;;;;;18.95;64.38;101315.59;6124804;23;20341;-48
2023/05/09 07:44:35;;;;;;;3.65;3.35;;;;;;;18.94;64.72;101320.16;6124125;23;20010;-47
2023/05/09 07:47:01;;;;;;;3.70;3.30;;;;;;;18.95;64.53;101315.59;6123931;23;20010;-49
2023/05/09 07:49:26;;;;;;;3.53;3.05;;;;;;;18.94;64.42;101314.75;6123732;23;20457;-49
2023/05/09 07:51:52;;;;;;;3.33;3.03;;;;;;;18.95;64.54;101316.44;6123801;23;20009;-48
2023/05/09 07:54:17;;;;;;;3.42;3.10;;;;;;;18.94;64.76;101314.75;6123658;23;20022;-49
2023/05/09 07:56:42;;;;;;;3.70;3.03;;;;;;;18.94;64.55;101314.75;6123813;23;20017;-49
2023/05/09 07:59:08;;;;;;;3.25;2.83;;;;;;;18.95;64.59;101310.22;6124550;23;20010;-46
2023/05/09 08:01:33;;;;;;;3.13;2.83;;;;;;;18.93;64.71;101299.56;6123773;23;20144;-49
2023/05/09 08:03:59;;;;;;;3.28;2.97;;;;;;;18.94;64.68;101295.88;6123814;23;20009;-47
2023/05/09 08:06:25;;;;;;;3.33;3.03;;;;;;;18.94;64.66;101297.69;6123681;23;20009;-47
2023/05/09 08:08:50;;;;;;;2.90;2.70;;;;;;;18.94;64.62;101297.69;6123596;23;20065;-49
2023/05/09 08:11:16;;;;;;;3.28;2.97;;;;;;;18.94;64.74;101292.31;6123112;23;20014;-51
2023/05/09 08:13:41;;;;;;;3.20;3.00;;;;;;;18.94;64.68;101289.59;6124018;23;20013;-47
2023/05/09 08:16:06;;;;;;;2.88;2.65;;;;;;;18.94;64.50;101284.19;6123275;23;20010;-49
2023/05/09 08:18:32;;;;;;;3.30;3.00;;;;;;;18.94;64.53;101285.06;6123550;23;20417;-49
2023/05/09 08:20:58;;;;;;;3.78;3.08;;;;;;;18.94;64.28;101274.28;6123613;23;20065;-51
2023/05/09 08:23:24;;;;;;;3.17;2.88;;;;;;;18.94;64.62;101273.41;6123851;23;20129;-50
2023/05/09 08:25:53;;;;;;;5.45;3.30;;;;;;;18.94;64.78;101270.72;6097560;23;20002;-49
2023/05/09 08:28:20;;;;;;;3.15;2.85;;;;;;;18.94;64.71;101271.59;6123540;23;20014;-48
2023/05/09 08:30:46;;;;;;;3.30;3.00;;;;;;;18.94;64.71;101258.09;6124227;23;20329;-50
2023/05/09 08:33:12;;;;;;;3.05;2.75;;;;;;;18.94;64.40;101258.09;6124979;23;20020;-50
2023/05/09 08:35:37;;;;;;;4.13;3.10;;;;;;;18.95;64.59;101262.47;6124336;23;20096;-48
2023/05/09 08:38:02;;;;;;;3.15;2.85;;;;;;;18.95;64.60;101262.47;6124121;23;20097;-50
2023/05/09 08:40:28;;;;;;;3.92;3.17;;;;;;;18.95;64.64;101257.09;6124298;23;20384;-47
2023/05/09 08:42:54;;;;;;;3.25;2.95;;;;;;;18.95;64.53;101240.06;6124339;23;20010;-48
2023/05/09 08:45:26;;;;;;;3.47;2.70;;;;;;;18.95;64.45;101250.84;6123842;23;20008;-48
2023/05/09 08:47:52;;;;;;;3.10;2.80;;;;;;;18.95;64.46;101246.28;6123829;23;20006;-45
2023/05/09 08:50:19;;;;;;;3.53;3.10;;;;;;;18.94;64.92;101249.13;6123958;23;20061;-51
2023/05/09 08:52:44;;;;;;;2.88;2.58;;;;;;;18.94;64.73;101241.03;6124068;23;20085;-47
2023/05/09 08:55:11;;;;;;;3.15;2.85;;;;;;;18.94;64.45;101241.91;6124069;23;20056;-48
2023/05/09 08:57:36;;;;;;;2.92;2.72;;;;;;;18.94;64.68;101238.31;6124161;23;20409;-47
2023/05/09 09:00:09;;;;;;;3.42;3.03;;;;;;;18.94;64.81;101244.59;6123838;23;20033;-51
2023/05/09 09:02:36;;;;;;;3.15;2.85;;;;;;;18.93;64.80;101237.50;6123740;23;20014;-51
2023/05/09 09:05:01;;;;;;;3.03;2.72;;;;;;;18.95;64.62;101234.66;6098198;23;20033;-48
2023/05/09 09:07:29;;;;;;;3.00;2.80;;;;;;;18.93;64.59;101229.38;6124046;23;20013;-49
2023/05/09 09:09:56;;;;;;;3.10;2.80;;;;;;;18.94;64.62;101233.81;6123610;23;20005;-50
2023/05/09 09:12:22;;;;;;;4.18;2.90;;;;;;;18.94;64.80;101238.31;6123823;23;20061;-48
2023/05/09 09:14:53;;;;;;;2.90;2.70;;;;;;;18.93;64.55;101229.38;6123919;23;20437;-46
2023/05/09 09:17:23;;;;;;;3.10;2.72;;;;;;;18.94;64.59;101228.41;6123751;23;20006;-46
2023/05/09 09:19:51;;;;;;;3.88;2.58;;;;;;;18.94;64.66;101230.22;6124413;23;20006;-50
2023/05/09 09:22:18;;;;;;;3.05;2.55;;;;;;;18.95;64.59;101229.25;6123771;23;20033;-51
2023/05/09 09:24:44;;;;;;;2.88;2.67;;;;;;;18.94;64.50;101231.09;6124128;23;20328;-47
2023/05/09 09:27:09;;;;;;;4.35;2.83;;;;;;;18.94;64.47;101228.41;6123742;23;20010;-47
2023/05/09 09:29:35;;;;;;;3.05;2.70;;;;;;;18.94;64.65;101223.00;6123646;23;20062;-46
2023/05/09 09:32:02;;;;;;;3.22;2.63;;;;;;;18.94;64.65;101219.44;6123808;23;20009;-46
2023/05/09 09:34:27;;;;;;;3.38;3.05;;;;;;;18.95;64.62;101221.16;6123371;23;20006;-46
2023/05/09 09:36:53;;;;;;;2.60;2.40;;;;;;;18.93;64.48;101221.28;6124010;23;20010;-45
2023/05/09 09:39:20;;;;;;;2.90;2.70;;;;;;;18.93;64.63;101215.91;6123612;23;20038;-47
2023/05/09 09:41:46;;;;;;;4.07;2.95;;;;;;;18.94;64.58;101217.63;6124339;23;20025;-46
2023/05/09 09:44:16;;;;;;;2.63;2.42;;;;;;;18.94;64.54;101214.03;6124171;23;20318;-46
2023/05/09 09:46:43;;;;;;;3.23;2.90;;;;;;;18.94;64.60;101211.34;6124264;23;20421;-45
2023/05/09 09:49:13;;;;;;;3.42;2.67;;;;;;;18.93;64.49;101205.09;6123575;23;20060;-46
2023/05/09 09:51:42;;;;;;;3.50;2.75;;;;;;;18.94;64.53;101211.34;6123870;23;20425;-46
2023/05/09 09:54:09;;;;;;;2.80;2.60;;;;;;;18.94;64.73;101203.25;6123463;23;20105;-49
2023/05/09 09:56:53;;;;;;;2.83;2.55;;;;;;;18.94;64.60;101200.56;6123654;23;20006;-45
2023/05/09 09:59:21;;;;;;;3.70;2.47;;;;;;;18.95;64.61;101204.97;6123837;23;20310;-47
2023/05/09 10:02:00;;;;;;;3.00;2.75;;;;;;;18.94;64.62;101190.63;6124326;23;20006;-45
2023/05/09 10:04:29;;;;;;;2.88;2.65;;;;;;;18.94;64.41;101196.03;6123953;23;20006;-45
2023/05/09 10:06:57;;;;;;;2.92;2.72;;;;;;;18.95;64.48;101186.09;6123839;23;20008;-46
2023/05/09 10:09:26;;;;;;;2.70;2.50;;;;;;;18.94;64.75;101179.84;6123835;23;20009;-46
2023/05/09 10:11:53;;;;;;;2.95;2.75;;;;;;;18.95;64.60;101186.09;6097740;23;20333;-46
2023/05/09 10:14:22;;;;;;;2.60;2.40;;;;;;;18.95;64.90;101188.78;6123385;23;20483;-46
2023/05/09 10:16:48;;;;;;;3.10;2.78;;;;;;;18.95;64.72;101177.97;6123948;23;20017;-46
2023/05/09 10:19:17;;;;;;;2.53;2.33;;;;;;;18.95;64.59;101180.69;6124181;23;20425;-45
2023/05/09 10:21:44;;;;;;;3.35;2.47;;;;;;;18.95;64.51;101183.38;6124283;23;20086;-45
2023/05/09 10:24:10;;;;;;;2.97;2.53;;;;;;;18.94;64.56;101174.44;6123549;23;20487;-47
2023/05/09 10:26:39;;;;;;;2.80;2.40;;;;;;;18.94;64.87;101174.44;6123466;23;20029;-47
2023/05/09 10:29:09;;;;;;;3.00;2.70;;;;;;;18.94;64.50;101174.44;6123408;23;20031;-47
2023/05/09 10:31:38;;;;;;;2.35;2.15;;;;;;;18.94;64.63;101170.88;6123978;23;20080;-46
2023/05/09 10:34:08;;;;;;;2.60;2.40;;;;;;;18.94;64.67;101168.16;6123601;23;20071;-46
2023/05/09 10:36:35;;;;;;;2.75;2.55;;;;;;;18.95;64.62;101161.78;6123410;23;20013;-45
2023/05/09 10:39:01;;;;;;;2.90;2.58;;;;;;;18.94;64.72;101163.66;6123461;23;20005;-47
2023/05/09 10:41:27;;;;;;;3.17;2.58;;;;;;;18.95;64.60;101161.78;6123348;23;20006;-45
2023/05/09 10:43:56;;;;;;;2.58;2.30;;;;;;;18.94;64.63;101155.56;6123398;23;20001;-46
2023/05/09 10:46:23;;;;;;;2.83;2.63;;;;;;;18.94;64.81;101152.84;6124736;23;20436;-46
2023/05/09 10:48:49;;;;;;;2.55;2.35;;;;;;;18.94;64.74;101151.97;6125791;23;20005;-46
2023/05/09 10:51:15;;;;;;;2.47;2.28;;;;;;;18.94;64.71;101138.50;6125799;23;20006;-45
2023/05/09 10:53:44;;;;;;;2.75;2.55;;;;;;;18.94;64.80;101144.75;6125044;23;20010;-45
2023/05/09 10:56:27;;;;;;;2.90;2.70;;;;;;;18.96;64.98;101139.19;6125277;23;20409;-46
2023/05/09 10:58:53;;;;;;;3.08;2.58;;;;;;;18.95;64.80;101140.22;6125137;23;20440;-46
2023/05/09 11:01:35;;;;;;;2.40;2.20;;;;;;;18.96;64.76;101133.78;6125455;23;20060;-46
2023/05/09 11:04:11;;;;;;;2.83;2.53;;;;;;;18.96;64.59;101133.78;6124960;23;20002;-46
2023/05/09 11:06:49;;;;;;;2.60;2.40;;;;;;;18.95;64.64;101138.34;6125153;23;20329;-46
2023/05/09 11:09:40;;;;;;;2.50;2.30;;;;;;;18.97;64.69;101124.72;6125585;23;20282;-45
2023/05/09 11:12:13;;;;;;;2.70;2.50;;;;;;;18.97;64.99;101131.97;6125241;23;20006;-46
2023/05/09 11:14:45;;;;;;;2.50;2.30;;;;;;;18.95;64.72;101119.47;6124954;23;20009;-46
2023/05/09 11:17:31;;;;;;;2.38;2.17;;;;;;;18.98;64.68;101120.16;6124575;23;20017;-46
2023/05/09 11:20:04;;;;;;;2.90;2.65;;;;;;;18.95;64.52;101116.75;6121770;23;20381;-47
2023/05/09 11:22:37;;;;;;;2.38;2.28;;;;;;;18.95;64.55;101110.53;6122392;23;20012;-46
2023/05/09 11:25:13;;;;;;;4.20;2.33;;;;;;;18.95;64.83;101110.53;6123080;23;20006;-46